Time;durP1;ratioP1;P1;durP2;ratioP2;P2;SDS_P1;SDS_P2;PMS_P1;PMS_P2;Temp;Humidity;BMP_temperature;BMP_pressure;BME280_temperature;BME280_humidity;BME280_pressure;Samples;Min_cycle;Max_cycle;Signal;HPM_P1;HPM_P2
2021/07/22 00:01:26;;;;;;;14.35;5.32;;;;;;;;;;5072193;28;20020;-66
2021/07/22 00:03:52;;;;;;;11.98;5.53;;;;;;;;;;5054221;28;20028;-66
2021/07/22 00:06:18;;;;;;;10.35;5.43;;;;;;;;;;5072132;28;20084;-66
2021/07/22 00:08:44;;;;;;;16.75;5.00;;;;;;;;;;5072752;28;20562;-66
2021/07/22 00:11:10;;;;;;;9.40;5.70;;;;;;;;;;5072144;28;20066;-66
2021/07/22 00:13:36;;;;;;;12.18;5.47;;;;;;;;;;5054250;28;20505;-66
2021/07/22 00:16:03;;;;;;;10.13;5.38;;;;;;;;;;5072310;28;20115;-66
2021/07/22 00:18:32;;;;;;;10.68;5.38;;;;;;;;;;5072238;28;20465;-66
2021/07/22 00:20:58;;;;;;;8.65;5.38;;;;;;;;;;5072229;28;20024;-66
2021/07/22 00:23:24;;;;;;;9.32;5.10;;;;;;;;;;5072011;28;20108;-66
2021/07/22 00:25:50;;;;;;;19.80;5.75;;;;;;;;;;5066927;28;20017;-66
2021/07/22 00:28:16;;;;;;;10.13;4.90;;;;;;;;;;5051807;28;20013;-66
2021/07/22 00:30:42;;;;;;;12.23;4.60;;;;;;;;;;5050844;28;20044;-66
2021/07/22 00:33:08;;;;;;;10.65;4.57;;;;;;;;;;5051746;28;20021;-66
2021/07/22 00:35:34;;;;;;;9.40;4.82;;;;;;;;;;5051737;28;20175;-66
2021/07/22 00:38:00;;;;;;;10.02;5.00;;;;;;;;;;5051885;28;20115;-66
2021/07/22 00:40:26;;;;;;;12.48;5.10;;;;;;;;;;5053832;28;20505;-66
2021/07/22 00:42:56;;;;;;;9.55;4.35;;;;;;;;;;5071803;28;20107;-66
2021/07/22 00:45:22;;;;;;;10.73;4.95;;;;;;;;;;5071982;28;20025;-66
2021/07/22 00:47:49;;;;;;;11.27;4.60;;;;;;;;;;5071685;28;20021;-66
2021/07/22 00:50:15;;;;;;;10.20;4.80;;;;;;;;;;5071760;28;20040;-66
2021/07/22 00:52:41;;;;;;;10.48;5.25;;;;;;;;;;5071669;28;20025;-65
2021/07/22 00:55:07;;;;;;;8.60;4.88;;;;;;;;;;5071382;28;20104;-66
2021/07/22 00:57:33;;;;;;;11.32;4.80;;;;;;;;;;5071737;28;20016;-65
2021/07/22 00:59:59;;;;;;;10.00;5.10;;;;;;;;;;5057014;28;20021;-66
2021/07/22 01:02:25;;;;;;;9.98;5.10;;;;;;;;;;5051706;28;20036;-66
2021/07/22 01:04:51;;;;;;;9.65;5.20;;;;;;;;;;5050368;28;20052;-66
2021/07/22 01:07:17;;;;;;;11.18;5.63;;;;;;;;;;5051567;28;20048;-66
2021/07/22 01:09:43;;;;;;;8.52;4.95;;;;;;;;;;5089977;28;20469;-66
2021/07/22 01:12:09;;;;;;;11.25;5.30;;;;;;;;;;5091698;28;20039;-66
2021/07/22 01:14:35;;;;;;;9.27;4.95;;;;;;;;;;5091510;28;20044;-66
2021/07/22 01:17:02;;;;;;;12.52;5.55;;;;;;;;;;5073525;28;20035;-66
2021/07/22 01:19:28;;;;;;;8.60;5.20;;;;;;;;;;5091693;28;20376;-66
2021/07/22 01:21:54;;;;;;;12.27;5.70;;;;;;;;;;5091485;28;20485;-67
2021/07/22 01:24:20;;;;;;;10.02;5.00;;;;;;;;;;5091628;28;20182;-66
2021/07/22 01:26:46;;;;;;;8.57;4.30;;;;;;;;;;5091607;28;20052;-66
2021/07/22 01:29:12;;;;;;;13.07;5.80;;;;;;;;;;5091516;28;20020;-66
2021/07/22 01:31:38;;;;;;;11.52;5.85;;;;;;;;;;5072874;28;20043;-66
2021/07/22 01:34:04;;;;;;;11.90;5.25;;;;;;;;;;5091398;28;20573;-66
2021/07/22 01:36:30;;;;;;;10.88;5.13;;;;;;;;;;5073310;28;20051;-66
2021/07/22 01:39:02;;;;;;;11.18;5.32;;;;;;;;;;5091559;28;20481;-66
2021/07/22 01:41:28;;;;;;;13.18;4.97;;;;;;;;;;5093762;28;20081;-66
2021/07/22 01:43:54;;;;;;;9.35;5.00;;;;;;;;;;5095479;28;20035;-66
2021/07/22 01:46:20;;;;;;;9.30;5.00;;;;;;;;;;5077167;28;20028;-67
2021/07/22 01:48:46;;;;;;;12.07;5.13;;;;;;;;;;5095562;28;20020;-66
2021/07/22 01:51:12;;;;;;;10.02;4.82;;;;;;;;;;5095532;28;20044;-66
2021/07/22 01:53:38;;;;;;;8.38;5.65;;;;;;;;;;5089165;28;20071;-66
2021/07/22 01:56:04;;;;;;;9.88;5.55;;;;;;;;;;5073738;28;20029;-66
2021/07/22 01:58:30;;;;;;;13.68;5.57;;;;;;;;;;5073247;28;20519;-66
2021/07/22 02:00:56;;;;;;;11.43;5.22;;;;;;;;;;5073552;28;20047;-66
2021/07/22 02:03:22;;;;;;;9.27;5.05;;;;;;;;;;5074754;28;20469;-66
2021/07/22 02:05:48;;;;;;;9.45;5.30;;;;;;;;;;5073220;28;20032;-66
2021/07/22 02:08:14;;;;;;;12.38;5.35;;;;;;;;;;5074731;28;20017;-66
2021/07/22 02:10:40;;;;;;;7.43;5.00;;;;;;;;;;5074556;28;20032;-66
2021/07/22 02:13:06;;;;;;;9.82;4.68;;;;;;;;;;5074731;28;20028;-66
2021/07/22 02:15:32;;;;;;;12.00;5.35;;;;;;;;;;5074660;28;20412;-66
2021/07/22 02:17:59;;;;;;;8.65;4.88;;;;;;;;;;5074672;28;20024;-66
2021/07/22 02:20:25;;;;;;;11.10;5.30;;;;;;;;;;5074639;28;20566;-66
2021/07/22 02:22:51;;;;;;;14.40;5.72;;;;;;;;;;5073191;28;20040;-66
2021/07/22 02:25:17;;;;;;;12.75;5.50;;;;;;;;;;5074571;28;20016;-66
2021/07/22 02:27:43;;;;;;;7.82;4.82;;;;;;;;;;5074395;28;20034;-66
2021/07/22 02:30:09;;;;;;;10.95;5.43;;;;;;;;;;5074515;28;20029;-66
2021/07/22 02:32:35;;;;;;;8.98;5.25;;;;;;;;;;5074208;28;20036;-66
2021/07/22 02:35:01;;;;;;;10.38;5.70;;;;;;;;;;5073302;28;20351;-66
2021/07/22 02:37:27;;;;;;;9.77;5.13;;;;;;;;;;5074232;28;20521;-66
2021/07/22 02:39:53;;;;;;;11.48;5.15;;;;;;;;;;5072563;28;20405;-66
2021/07/22 02:42:20;;;;;;;9.88;4.70;;;;;;;;;;5074045;28;20024;-66
2021/07/22 02:44:46;;;;;;;14.73;5.72;;;;;;;;;;5072626;28;20024;-66
2021/07/22 02:47:12;;;;;;;9.93;5.18;;;;;;;;;;5074067;28;20029;-66
2021/07/22 02:49:38;;;;;;;13.07;5.57;;;;;;;;;;5073838;28;20095;-66
2021/07/22 02:52:08;;;;;;;12.43;5.55;;;;;;;;;;5072770;28;20032;-66
2021/07/22 02:54:35;;;;;;;30.90;6.28;;;;;;;;;;5073502;28;20027;-66
2021/07/22 02:57:01;;;;;;;26.58;5.82;;;;;;;;;;5074025;28;20021;-66
2021/07/22 02:59:27;;;;;;;11.95;4.82;;;;;;;;;;5074229;28;20469;-66
2021/07/22 03:01:53;;;;;;;10.65;5.20;;;;;;;;;;5074178;28;20060;-66
2021/07/22 03:04:19;;;;;;;10.10;5.15;;;;;;;;;;5074041;28;20040;-66
2021/07/22 03:06:45;;;;;;;11.18;5.22;;;;;;;;;;5072360;28;20029;-66
2021/07/22 03:09:11;;;;;;;11.32;4.50;;;;;;;;;;5073285;28;20032;-66
2021/07/22 03:11:37;;;;;;;12.57;5.60;;;;;;;;;;5073425;28;20033;-66
2021/07/22 03:14:03;;;;;;;9.57;4.95;;;;;;;;;;5073595;28;20466;-66
2021/07/22 03:16:29;;;;;;;14.68;5.93;;;;;;;;;;5079151;28;20091;-66
2021/07/22 03:18:55;;;;;;;11.55;5.22;;;;;;;;;;5073928;28;20027;-66
2021/07/22 03:21:21;;;;;;;9.38;5.03;;;;;;;;;;5073691;28;20072;-66
2021/07/22 03:23:47;;;;;;;9.75;4.80;;;;;;;;;;5073337;28;20074;-66
2021/07/22 03:26:18;;;;;;;14.70;6.65;;;;;;;;;;5073394;28;20025;-66
2021/07/22 03:28:44;;;;;;;11.38;4.53;;;;;;;;;;5073308;28;20028;-66
2021/07/22 03:31:11;;;;;;;11.32;4.80;;;;;;;;;;5055647;28;20600;-66
2021/07/22 03:33:37;;;;;;;7.65;5.28;;;;;;;;;;5073458;28;20051;-66
2021/07/22 03:36:04;;;;;;;9.13;4.78;;;;;;;;;;5073568;28;20477;-66
2021/07/22 03:38:30;;;;;;;10.00;5.50;;;;;;;;;;5073184;28;20423;-66
2021/07/22 03:40:56;;;;;;;13.07;5.07;;;;;;;;;;5073335;28;20028;-66
2021/07/22 03:43:22;;;;;;;10.85;5.05;;;;;;;;;;5073265;28;20074;-66
2021/07/22 03:45:48;;;;;;;11.27;6.05;;;;;;;;;;5073111;28;20049;-66
2021/07/22 03:48:14;;;;;;;10.77;5.00;;;;;;;;;;5055170;28;20025;-67
2021/07/22 03:50:40;;;;;;;14.98;5.22;;;;;;;;;;5055059;28;20036;-66
2021/07/22 03:53:08;;;;;;;10.57;4.90;;;;;;;;;;5072451;28;20021;-67
2021/07/22 03:55:34;;;;;;;11.45;5.28;;;;;;;;;;5072436;28;20023;-66
2021/07/22 03:58:00;;;;;;;10.27;4.90;;;;;;;;;;5070972;28;20040;-66
2021/07/22 04:00:26;;;;;;;8.85;5.00;;;;;;;;;;5072415;28;20034;-66
2021/07/22 04:02:59;;;;;;;10.30;5.18;;;;;;;;;;5071771;28;20103;-66
2021/07/22 04:05:26;;;;;;;8.50;5.35;;;;;;;;;;5071957;28;20056;-66
2021/07/22 04:07:56;;;;;;;9.75;5.00;;;;;;;;;;5071997;28;20486;-66
2021/07/22 04:10:22;;;;;;;14.63;5.55;;;;;;;;;;5070739;28;20443;-66
2021/07/22 04:12:52;;;;;;;13.18;5.55;;;;;;;;;;5072163;28;20472;-66
2021/07/22 04:15:18;;;;;;;12.30;5.80;;;;;;;;;;5071834;28;20131;-66
2021/07/22 04:17:44;;;;;;;8.35;5.15;;;;;;;;;;5071851;28;20024;-66
2021/07/22 04:20:11;;;;;;;13.38;6.35;;;;;;;;;;5071906;28;20020;-66
2021/07/22 04:22:37;;;;;;;12.88;5.72;;;;;;;;;;5072144;28;20103;-66
2021/07/22 04:25:03;;;;;;;20.02;5.43;;;;;;;;;;5072453;28;20017;-66
2021/07/22 04:27:29;;;;;;;13.75;5.43;;;;;;;;;;5071208;28;20488;-66
2021/07/22 04:29:57;;;;;;;10.15;5.55;;;;;;;;;;5072042;28;20024;-66
2021/07/22 04:32:23;;;;;;;11.45;5.28;;;;;;;;;;5072097;28;20063;-66
2021/07/22 04:34:49;;;;;;;11.57;4.75;;;;;;;;;;5072178;28;20027;-66
2021/07/22 04:37:15;;;;;;;7.78;4.20;;;;;;;;;;5072248;28;20115;-66
2021/07/22 04:39:41;;;;;;;10.73;5.28;;;;;;;;;;5071930;28;20051;-66
2021/07/22 04:42:07;;;;;;;10.40;4.72;;;;;;;;;;5072145;28;20024;-66
2021/07/22 04:44:33;;;;;;;8.70;5.50;;;;;;;;;;5072276;28;20016;-66
2021/07/22 04:47:00;;;;;;;20.13;5.97;;;;;;;;;;5072116;28;20025;-66
2021/07/22 04:49:26;;;;;;;10.45;4.50;;;;;;;;;;5071831;28;20048;-66
2021/07/22 04:51:52;;;;;;;12.13;5.20;;;;;;;;;;5070750;28;20444;-66
2021/07/22 04:54:18;;;;;;;11.57;5.65;;;;;;;;;;5053592;28;20032;-66
2021/07/22 04:56:44;;;;;;;16.45;5.57;;;;;;;;;;5071838;28;20025;-66
2021/07/22 04:59:10;;;;;;;9.25;4.97;;;;;;;;;;5053446;28;20021;-66
2021/07/22 05:01:36;;;;;;;13.13;5.55;;;;;;;;;;5071832;28;20024;-65
2021/07/22 05:04:02;;;;;;;16.10;5.68;;;;;;;;;;5053928;28;20020;-66
2021/07/22 05:06:28;;;;;;;13.70;5.93;;;;;;;;;;5053831;28;20158;-66
2021/07/22 05:08:54;;;;;;;11.18;5.72;;;;;;;;;;5071767;28;20025;-66
2021/07/22 05:11:20;;;;;;;14.80;5.40;;;;;;;;;;5071700;28;20033;-65
2021/07/22 05:13:47;;;;;;;8.02;4.93;;;;;;;;;;5050305;28;20025;-66
2021/07/22 05:16:13;;;;;;;12.77;5.60;;;;;;;;;;5051803;28;20039;-66
2021/07/22 05:18:40;;;;;;;12.85;5.95;;;;;;;;;;5051625;28;20021;-66
2021/07/22 05:21:06;;;;;;;9.25;5.38;;;;;;;;;;5051814;28;20029;-66
2021/07/22 05:23:35;;;;;;;15.00;5.32;;;;;;;;;;5051499;28;20047;-66
2021/07/22 05:26:05;;;;;;;9.82;6.10;;;;;;;;;;5050343;28;20528;-65
2021/07/22 05:28:31;;;;;;;12.15;5.43;;;;;;;;;;5051584;28;20017;-67
2021/07/22 05:30:57;;;;;;;15.23;5.32;;;;;;;;;;5051270;28;20087;-66
2021/07/22 05:33:23;;;;;;;11.98;5.90;;;;;;;;;;5051171;28;20017;-66
2021/07/22 05:35:49;;;;;;;13.30;5.70;;;;;;;;;;5051195;28;20021;-66
2021/07/22 05:38:15;;;;;;;14.02;5.80;;;;;;;;;;5051414;28;20026;-66
2021/07/22 05:40:41;;;;;;;10.80;5.80;;;;;;;;;;5051367;28;20060;-67
2021/07/22 05:43:07;;;;;;;7.78;4.65;;;;;;;;;;5051455;28;20355;-66
2021/07/22 05:45:35;;;;;;;11.50;5.60;;;;;;;;;;5051342;28;20386;-66
2021/07/22 05:48:01;;;;;;;12.68;5.80;;;;;;;;;;5051320;28;20017;-66
2021/07/22 05:50:27;;;;;;;14.80;5.65;;;;;;;;;;5049927;28;20059;-66
2021/07/22 05:52:53;;;;;;;13.98;5.68;;;;;;;;;;5051146;28;20022;-66
2021/07/22 05:55:19;;;;;;;10.93;5.78;;;;;;;;;;5051358;28;20028;-66
2021/07/22 05:57:45;;;;;;;14.43;5.15;;;;;;;;;;5051191;28;20029;-66
2021/07/22 06:00:11;;;;;;;9.57;5.32;;;;;;;;;;5051229;28;20096;-66
2021/07/22 06:02:37;;;;;;;11.60;5.80;;;;;;;;;;5050991;28;20017;-66
2021/07/22 06:05:04;;;;;;;14.10;5.47;;;;;;;;;;5050976;28;20044;-66
2021/07/22 06:07:30;;;;;;;13.40;5.35;;;;;;;;;;5051243;28;20479;-66
2021/07/22 06:09:56;;;;;;;15.20;6.10;;;;;;;;;;5050807;28;20117;-66
2021/07/22 06:12:22;;;;;;;11.35;5.45;;;;;;;;;;5051020;28;20035;-66
2021/07/22 06:14:48;;;;;;;9.60;5.32;;;;;;;;;;5064303;28;20101;-66
2021/07/22 06:17:14;;;;;;;11.05;5.47;;;;;;;;;;5071382;28;20081;-66
2021/07/22 06:19:40;;;;;;;15.73;6.22;;;;;;;;;;5071163;28;20055;-66
2021/07/22 06:22:06;;;;;;;13.27;6.55;;;;;;;;;;5070939;28;20017;-66
2021/07/22 06:24:32;;;;;;;15.82;5.50;;;;;;;;;;5070669;28;20067;-66
2021/07/22 06:26:58;;;;;;;13.63;6.22;;;;;;;;;;5072334;28;20021;-67
2021/07/22 06:29:25;;;;;;;15.15;6.53;;;;;;;;;;5074708;28;20380;-66
2021/07/22 06:31:51;;;;;;;10.70;5.40;;;;;;;;;;5074150;28;20032;-66
2021/07/22 06:34:17;;;;;;;17.92;6.85;;;;;;;;;;5074501;28;20020;-66
2021/07/22 06:36:43;;;;;;;17.90;7.00;;;;;;;;;;5074363;28;20492;-66
2021/07/22 06:39:09;;;;;;;15.43;5.97;;;;;;;;;;5073137;28;20030;-67
2021/07/22 06:41:35;;;;;;;12.48;5.63;;;;;;;;;;5074340;28;20489;-67
2021/07/22 06:44:01;;;;;;;15.52;6.30;;;;;;;;;;5074253;28;20032;-66
2021/07/22 06:46:27;;;;;;;14.20;6.05;;;;;;;;;;5073187;28;20247;-67
2021/07/22 06:48:54;;;;;;;14.93;5.70;;;;;;;;;;5072660;28;20024;-66
2021/07/22 06:51:22;;;;;;;10.80;6.25;;;;;;;;;;5074051;28;20044;-66
2021/07/22 06:53:49;;;;;;;12.80;5.53;;;;;;;;;;5066551;28;20074;-66
2021/07/22 06:56:15;;;;;;;10.18;6.18;;;;;;;;;;5052692;28;20112;-66
2021/07/22 06:58:41;;;;;;;11.98;5.15;;;;;;;;;;5053772;28;20068;-67
2021/07/22 07:01:07;;;;;;;17.27;5.95;;;;;;;;;;5054114;28;20021;-67
2021/07/22 07:03:33;;;;;;;10.60;5.70;;;;;;;;;;5054119;28;20067;-67
2021/07/22 07:05:59;;;;;;;12.75;4.82;;;;;;;;;;5052676;28;20036;-67
2021/07/22 07:08:25;;;;;;;11.50;5.20;;;;;;;;;;5054006;28;20017;-66
2021/07/22 07:10:51;;;;;;;9.77;5.10;;;;;;;;;;5053925;28;20044;-67
2021/07/22 07:13:17;;;;;;;19.27;5.57;;;;;;;;;;5053783;28;20021;-67
2021/07/22 07:15:43;;;;;;;10.23;4.75;;;;;;;;;;5073964;28;20110;-66
2021/07/22 07:18:09;;;;;;;10.73;4.80;;;;;;;;;;5073996;28;20109;-67
2021/07/22 07:20:36;;;;;;;8.75;4.15;;;;;;;;;;5073745;28;20029;-66
2021/07/22 07:23:02;;;;;;;14.25;5.45;;;;;;;;;;5073550;28;20025;-66
2021/07/22 07:25:28;;;;;;;9.15;4.60;;;;;;;;;;5055630;28;20025;-66
2021/07/22 07:27:55;;;;;;;12.45;5.45;;;;;;;;;;5073486;28;20067;-66
2021/07/22 07:30:21;;;;;;;11.32;5.63;;;;;;;;;;5073264;28;20111;-66
2021/07/22 07:32:48;;;;;;;15.15;5.63;;;;;;;;;;5073137;28;20630;-67
2021/07/22 07:35:14;;;;;;;16.88;5.68;;;;;;;;;;5073253;28;20378;-67
2021/07/22 07:37:40;;;;;;;15.30;4.90;;;;;;;;;;5073198;28;20028;-67
2021/07/22 07:40:07;;;;;;;14.00;5.18;;;;;;;;;;5072658;28;20089;-66
2021/07/22 07:42:36;;;;;;;11.85;5.60;;;;;;;;;;5073053;28;20016;-66
2021/07/22 07:45:02;;;;;;;13.05;4.90;;;;;;;;;;5073008;28;20021;-66
2021/07/22 07:47:28;;;;;;;13.32;5.40;;;;;;;;;;5072482;28;20024;-66
2021/07/22 07:49:54;;;;;;;16.95;4.90;;;;;;;;;;5072420;28;20108;-67
2021/07/22 07:52:20;;;;;;;14.23;5.45;;;;;;;;;;5072346;28;20079;-66
2021/07/22 07:54:49;;;;;;;15.75;5.40;;;;;;;;;;5071844;28;20016;-66
2021/07/22 07:57:15;;;;;;;10.50;4.70;;;;;;;;;;5072298;28;20035;-66
2021/07/22 07:59:42;;;;;;;14.65;5.07;;;;;;;;;;5070832;28;20534;-66
2021/07/22 08:02:09;;;;;;;21.75;5.22;;;;;;;;;;5068354;28;20083;-66
2021/07/22 08:04:36;;;;;;;20.02;5.45;;;;;;;;;;5068773;28;20087;-66
2021/07/22 08:07:02;;;;;;;11.52;5.20;;;;;;;;;;5071178;28;20105;-66
2021/07/22 08:09:28;;;;;;;13.98;5.00;;;;;;;;;;5072454;28;20366;-67
2021/07/22 08:11:54;;;;;;;9.40;4.70;;;;;;;;;;5066489;28;20475;-67
2021/07/22 08:14:20;;;;;;;11.48;4.25;;;;;;;;;;5072397;28;20501;-66
2021/07/22 08:16:46;;;;;;;10.30;4.90;;;;;;;;;;5072463;28;20477;-66
2021/07/22 08:19:12;;;;;;;12.88;4.65;;;;;;;;;;5072519;28;20025;-67
2021/07/22 08:21:38;;;;;;;11.82;4.55;;;;;;;;;;5072393;28;20024;-66
2021/07/22 08:24:05;;;;;;;23.98;5.00;;;;;;;;;;5072095;28;20028;-66
2021/07/22 08:26:31;;;;;;;10.82;4.82;;;;;;;;;;5072090;28;20021;-66
2021/07/22 08:28:57;;;;;;;8.63;4.70;;;;;;;;;;5072009;28;20023;-66
2021/07/22 08:31:24;;;;;;;10.90;5.20;;;;;;;;;;5071886;28;20036;-67
2021/07/22 08:33:51;;;;;;;8.90;4.70;;;;;;;;;;5072163;28;20112;-66
2021/07/22 08:36:17;;;;;;;10.45;3.58;;;;;;;;;;5072238;28;20063;-67
2021/07/22 08:38:44;;;;;;;10.35;4.90;;;;;;;;;;5072076;28;20020;-66
2021/07/22 08:41:13;;;;;;;14.32;5.25;;;;;;;;;;5070571;28;20020;-66
2021/07/22 08:43:39;;;;;;;8.35;4.43;;;;;;;;;;5072079;28;20031;-66
2021/07/22 08:46:06;;;;;;;12.15;4.82;;;;;;;;;;5070571;28;20021;-67
2021/07/22 08:48:34;;;;;;;13.40;5.43;;;;;;;;;;5071745;28;20020;-66
2021/07/22 08:51:01;;;;;;;11.05;5.72;;;;;;;;;;5070009;28;20374;-67
2021/07/22 08:53:27;;;;;;;10.43;4.93;;;;;;;;;;5071368;28;20036;-67
2021/07/22 08:55:54;;;;;;;11.10;4.68;;;;;;;;;;5071607;28;20032;-66
2021/07/22 08:58:21;;;;;;;8.85;4.72;;;;;;;;;;5071834;28;20025;-66
2021/07/22 09:00:47;;;;;;;12.82;4.40;;;;;;;;;;5071506;28;20025;-67
2021/07/22 09:03:14;;;;;;;10.50;4.80;;;;;;;;;;5071934;28;20017;-66
2021/07/22 09:05:41;;;;;;;12.65;5.20;;;;;;;;;;5062953;28;20656;-66
2021/07/22 09:08:07;;;;;;;13.77;5.55;;;;;;;;;;5052007;28;20021;-65
2021/07/22 09:10:33;;;;;;;9.45;4.75;;;;;;;;;;5050026;28;20528;-66
2021/07/22 09:12:59;;;;;;;12.10;4.90;;;;;;;;;;5050041;28;20045;-66
2021/07/22 09:15:26;;;;;;;7.25;4.43;;;;;;;;;;5051092;28;20076;-66
2021/07/22 09:17:52;;;;;;;9.50;5.13;;;;;;;;;;5051329;28;20081;-67
2021/07/22 09:20:31;;;;;;;12.38;5.32;;;;;;;;;;5051471;28;20059;-67
2021/07/22 09:22:58;;;;;;;10.55;4.80;;;;;;;;;;5051747;28;20017;-67
2021/07/22 09:25:37;;;;;;;9.13;5.15;;;;;;;;;;5051619;28;20036;-66
2021/07/22 09:28:03;;;;;;;11.02;4.32;;;;;;;;;;5051816;28;20021;-67
2021/07/22 09:30:29;;;;;;;10.77;4.55;;;;;;;;;;5062703;28;20049;-66
2021/07/22 09:32:55;;;;;;;11.00;5.65;;;;;;;;;;5053230;28;20438;-66
2021/07/22 09:35:22;;;;;;;7.90;4.43;;;;;;;;;;5070963;28;20021;-66
2021/07/22 09:37:52;;;;;;;11.02;4.45;;;;;;;;;;5071009;28;20099;-69
2021/07/22 09:40:30;;;;;;;14.82;4.75;;;;;;;;;;5053107;28;20481;-66
2021/07/22 09:42:56;;;;;;;11.45;4.50;;;;;;;;;;5071174;28;20036;-66
2021/07/22 09:45:26;;;;;;;12.63;4.72;;;;;;;;;;5053069;28;20024;-67
2021/07/22 09:47:57;;;;;;;11.52;4.38;;;;;;;;;;5071418;28;20024;-67
2021/07/22 09:50:26;;;;;;;9.90;4.40;;;;;;;;;;5071133;28;20021;-66
2021/07/22 09:53:09;;;;;;;12.57;5.07;;;;;;;;;;5071163;28;20028;-66
2021/07/22 09:55:36;;;;;;;8.43;3.85;;;;;;;;;;5071152;28;20354;-66
2021/07/22 09:58:13;;;;;;;10.15;4.03;;;;;;;;;;5053155;28;20611;-66
2021/07/22 10:00:43;;;;;;;10.45;4.50;;;;;;;;;;5051211;28;20713;-66
2021/07/22 10:03:10;;;;;;;10.35;3.97;;;;;;;;;;5074337;28;20031;-66
2021/07/22 10:05:58;;;;;;;20.40;5.75;;;;;;;;;;5074662;28;20465;-67
2021/07/22 10:08:26;;;;;;;9.05;5.40;;;;;;;;;;5075511;28;20021;-67
2021/07/22 10:10:52;;;;;;;8.48;4.20;;;;;;;;;;5075013;28;20040;-67
2021/07/22 10:13:42;;;;;;;7.55;4.63;;;;;;;;;;5075085;28;20021;-66
2021/07/22 10:16:11;;;;;;;9.68;4.65;;;;;;;;;;5074920;28;20078;-66
2021/07/22 10:18:47;;;;;;;13.55;5.15;;;;;;;;;;5074311;28;20020;-66
2021/07/22 10:21:14;;;;;;;10.93;4.95;;;;;;;;;;5073923;28;20020;-66
2021/07/22 10:23:40;;;;;;;10.75;4.65;;;;;;;;;;5074219;28;20095;-66
2021/07/22 10:26:07;;;;;;;11.98;4.50;;;;;;;;;;5073712;28;20025;-65
2021/07/22 10:28:34;;;;;;;18.85;5.13;;;;;;;;;;5073359;28;20017;-66
2021/07/22 10:31:03;;;;;;;12.48;4.53;;;;;;;;;;5070989;28;20033;-65
2021/07/22 10:33:29;;;;;;;11.32;4.32;;;;;;;;;;5063330;28;20027;-66
2021/07/22 10:35:56;;;;;;;8.55;4.35;;;;;;;;;;5074007;28;20035;-66
2021/07/22 10:38:28;;;;;;;7.28;4.35;;;;;;;;;;5094448;28;20020;-66
2021/07/22 10:40:58;;;;;;;13.60;4.90;;;;;;;;;;5094721;28;20035;-66
2021/07/22 10:43:30;;;;;;;11.75;5.00;;;;;;;;;;5094519;28;20025;-66
2021/07/22 10:45:56;;;;;;;8.32;4.25;;;;;;;;;;5076454;28;20115;-66
2021/07/22 10:48:28;;;;;;;7.55;4.43;;;;;;;;;;5076156;28;20059;-66
2021/07/22 10:50:54;;;;;;;6.82;3.58;;;;;;;;;;5094292;28;20035;-66
2021/07/22 10:53:37;;;;;;;9.50;4.88;;;;;;;;;;5094339;28;20020;-66
2021/07/22 10:56:04;;;;;;;7.68;3.95;;;;;;;;;;5093370;28;20028;-66
2021/07/22 10:58:30;;;;;;;7.78;4.70;;;;;;;;;;5093167;28;20476;-66
2021/07/22 11:00:57;;;;;;;10.57;4.70;;;;;;;;;;5093255;28;20540;-67
2021/07/22 11:06:04;;;;;;;11.07;4.22;;;;;;;;;;5069758;28;20028;-67
2021/07/22 11:08:31;;;;;;;9.88;4.30;;;;;;;;;;5053112;28;20047;-67
2021/07/22 11:11:06;;;;;;;7.90;3.83;;;;;;;;;;5068043;28;20060;-67
2021/07/22 11:13:42;;;;;;;9.60;4.30;;;;;;;;;;5072032;28;20024;-67
2021/07/22 11:16:09;;;;;;;8.55;3.95;;;;;;;;;;5069809;28;20025;-67
2021/07/22 11:18:44;;;;;;;9.13;4.13;;;;;;;;;;5072752;28;20520;-66
2021/07/22 11:21:10;;;;;;;10.00;4.63;;;;;;;;;;5073132;28;20103;-67
2021/07/22 11:23:36;;;;;;;7.90;4.50;;;;;;;;;;5073270;28;20048;-67
2021/07/22 11:26:03;;;;;;;6.72;4.13;;;;;;;;;;5055610;28;20024;-68
2021/07/22 11:28:29;;;;;;;8.95;4.22;;;;;;;;;;5073439;28;20370;-68
2021/07/22 11:31:01;;;;;;;10.88;5.10;;;;;;;;;;5073555;28;20609;-68
2021/07/22 11:33:31;;;;;;;11.70;4.90;;;;;;;;;;5072672;28;20120;-68
2021/07/22 11:35:58;;;;;;;10.40;4.40;;;;;;;;;;5055219;28;20108;-67
2021/07/22 11:38:24;;;;;;;17.77;9.13;;;;;;;;;;5072473;28;20037;-68
2021/07/22 11:40:50;;;;;;;14.40;9.65;;;;;;;;;;5073476;28;20107;-68
2021/07/22 11:43:36;;;;;;;17.45;11.65;;;;;;;;;;5073388;28;20024;-68
2021/07/22 11:46:03;;;;;;;16.42;10.15;;;;;;;;;;5055344;28;20024;-68
2021/07/22 11:48:29;;;;;;;18.90;10.90;;;;;;;;;;5073127;28;20481;-68
2021/07/22 11:51:02;;;;;;;18.17;10.48;;;;;;;;;;5054970;28;20439;-68
2021/07/22 11:53:29;;;;;;;17.05;9.45;;;;;;;;;;5070837;28;20103;-67
2021/07/22 11:55:57;;;;;;;15.43;8.70;;;;;;;;;;5055156;28;20093;-67
2021/07/22 11:58:23;;;;;;;16.90;8.52;;;;;;;;;;5073088;28;20647;-68
2021/07/22 12:00:49;;;;;;;15.50;9.15;;;;;;;;;;5072930;28;20032;-67
2021/07/22 12:03:15;;;;;;;24.75;15.65;;;;;;;;;;5072379;28;20031;-67
2021/07/22 12:05:41;;;;;;;23.38;14.27;;;;;;;;;;5051165;28;20020;-67
2021/07/22 12:08:17;;;;;;;24.58;14.07;;;;;;;;;;5051582;28;20067;-68
2021/07/22 12:10:43;;;;;;;24.08;14.45;;;;;;;;;;5052762;28;20025;-68
2021/07/22 12:13:09;;;;;;;21.48;13.57;;;;;;;;;;5052654;28;20068;-68
2021/07/22 12:15:36;;;;;;;26.52;13.63;;;;;;;;;;5052711;28;20533;-67
2021/07/22 12:18:02;;;;;;;18.38;10.90;;;;;;;;;;5052572;28;20056;-67
2021/07/22 12:20:29;;;;;;;17.60;9.23;;;;;;;;;;5052505;28;20021;-66
2021/07/22 12:22:55;;;;;;;13.25;8.35;;;;;;;;;;5085553;28;20119;-66
2021/07/22 12:25:21;;;;;;;12.48;7.75;;;;;;;;;;5071885;28;20024;-67
2021/07/22 12:27:49;;;;;;;16.42;9.05;;;;;;;;;;5054181;28;20055;-67
2021/07/22 12:30:16;;;;;;;31.15;10.63;;;;;;;;;;5071976;28;20028;-67
2021/07/22 12:32:58;;;;;;;18.20;8.32;;;;;;;;;;5072265;28;20016;-68
2021/07/22 12:35:34;;;;;;;15.98;8.20;;;;;;;;;;5071880;28;20077;-69
2021/07/22 12:38:06;;;;;;;21.98;8.95;;;;;;;;;;5067786;28;20074;-68
2021/07/22 12:40:38;;;;;;;20.63;8.75;;;;;;;;;;5071679;28;20040;-68
2021/07/22 12:43:06;;;;;;;14.95;6.95;;;;;;;;;;5072132;28;20013;-67
2021/07/22 12:45:32;;;;;;;15.38;7.53;;;;;;;;;;5072165;28;20481;-67
2021/07/22 12:47:58;;;;;;;15.27;7.68;;;;;;;;;;5072088;28;20668;-66
2021/07/22 12:50:28;;;;;;;15.98;7.35;;;;;;;;;;5050323;28;20090;-67
2021/07/22 12:52:54;;;;;;;11.18;5.75;;;;;;;;;;5059924;28;20116;-66
2021/07/22 12:55:31;;;;;;;16.08;6.32;;;;;;;;;;5051889;28;20021;-67
2021/07/22 12:57:57;;;;;;;10.68;5.43;;;;;;;;;;5071201;28;20546;-67
2021/07/22 13:00:23;;;;;;;10.65;5.78;;;;;;;;;;5071826;28;20027;-67
2021/07/22 13:02:56;;;;;;;12.23;5.82;;;;;;;;;;5071927;28;20485;-67
2021/07/22 13:05:22;;;;;;;9.52;5.70;;;;;;;;;;5071558;28;20032;-67
2021/07/22 13:07:49;;;;;;;10.23;4.82;;;;;;;;;;5071059;28;20021;-67
2021/07/22 13:10:16;;;;;;;11.07;5.10;;;;;;;;;;5071171;28;20103;-67
2021/07/22 13:12:42;;;;;;;8.93;5.00;;;;;;;;;;5071703;28;20033;-67
2021/07/22 13:15:09;;;;;;;9.77;5.13;;;;;;;;;;5071433;28;20497;-67
2021/07/22 13:17:39;;;;;;;10.60;4.85;;;;;;;;;;5071390;28;20202;-67
2021/07/22 13:20:15;;;;;;;10.82;4.82;;;;;;;;;;5070806;28;20036;-67
2021/07/22 13:22:41;;;;;;;8.80;4.43;;;;;;;;;;5053626;28;20496;-67
2021/07/22 13:25:08;;;;;;;12.60;5.68;;;;;;;;;;5071184;28;20439;-67
2021/07/22 13:27:35;;;;;;;8.85;5.20;;;;;;;;;;5071481;28;20416;-68
2021/07/22 13:30:09;;;;;;;9.77;5.63;;;;;;;;;;5053092;28;20029;-68
2021/07/22 13:32:35;;;;;;;7.43;4.80;;;;;;;;;;5071455;28;20029;-67
2021/07/22 13:35:12;;;;;;;7.28;4.68;;;;;;;;;;5052923;28;20024;-68
2021/07/22 13:37:38;;;;;;;7.18;4.03;;;;;;;;;;5073685;28;20024;-67
2021/07/22 13:40:05;;;;;;;7.10;4.35;;;;;;;;;;5075196;28;20020;-67
2021/07/22 13:42:31;;;;;;;7.97;4.10;;;;;;;;;;5075121;28;20052;-67
2021/07/22 13:44:57;;;;;;;8.80;5.03;;;;;;;;;;5074662;28;20028;-68
2021/07/22 13:47:23;;;;;;;8.98;4.95;;;;;;;;;;5075064;28;20078;-69
2021/07/22 13:49:49;;;;;;;9.40;4.78;;;;;;;;;;5074860;28;20086;-66
2021/07/22 13:52:15;;;;;;;10.07;4.68;;;;;;;;;;5074370;28;20107;-66
2021/07/22 13:54:41;;;;;;;9.80;5.30;;;;;;;;;;5081037;28;20529;-67
2021/07/22 13:57:07;;;;;;;7.88;4.00;;;;;;;;;;5071359;28;20032;-67
2021/07/22 13:59:34;;;;;;;9.02;4.95;;;;;;;;;;5095406;28;20077;-67
2021/07/22 14:02:02;;;;;;;9.20;4.93;;;;;;;;;;5095077;28;20032;-67
2021/07/22 14:04:28;;;;;;;7.78;4.57;;;;;;;;;;5067932;28;20392;-67
2021/07/22 14:06:54;;;;;;;7.03;4.20;;;;;;;;;;5088883;28;20104;-67
2021/07/22 14:09:20;;;;;;;9.88;5.22;;;;;;;;;;5094699;28;20028;-67
2021/07/22 14:11:46;;;;;;;9.35;5.20;;;;;;;;;;5094316;28;20038;-66
2021/07/22 14:14:13;;;;;;;10.02;5.85;;;;;;;;;;5089392;28;20465;-67
2021/07/22 14:16:39;;;;;;;7.82;4.65;;;;;;;;;;5074189;28;20066;-66
2021/07/22 14:19:05;;;;;;;11.63;5.38;;;;;;;;;;5074462;28;20017;-67
2021/07/22 14:21:31;;;;;;;8.57;5.03;;;;;;;;;;5074670;28;20428;-66
2021/07/22 14:23:57;;;;;;;9.43;5.10;;;;;;;;;;5074540;28;20036;-66
2021/07/22 14:26:25;;;;;;;8.18;4.32;;;;;;;;;;5074298;28;20070;-68
2021/07/22 14:28:52;;;;;;;9.88;4.28;;;;;;;;;;5074414;28;20039;-67
2021/07/22 14:31:18;;;;;;;9.68;4.63;;;;;;;;;;5073995;28;20037;-67
2021/07/22 14:33:45;;;;;;;8.80;4.80;;;;;;;;;;5055958;28;20382;-67
2021/07/22 14:36:11;;;;;;;8.32;4.50;;;;;;;;;;5074391;28;20052;-67